Terminal Aerodrome Forecast
Issued by NWS Binghamton, NY

Home | Current Version | Previous Version | Text Only | Print | Product List | Glossary On
Versions: 1 2 3 4 5 6 7 8 9 10 11 12 13 14 15 16 17 18 19 20 21 22 23 24
271
FTUS41 KBGM 290812 AAB
TAFBGM
TAF AMD
KBGM 290812Z 2908/3006 19006KT P6SM BKN100
     FM291900 31008KT P6SM BKN025
     FM300300 VRB03KT P6SM BKN200=

USA.gov is the U.S. government's official web portal to all federal, state and local government web resources and services.